createdAt,value
2018-02-18T00:00:18.896Z,93.40
2018-02-18T00:02:46.890Z,93.50
2018-02-18T00:05:15.569Z,93.70
2018-02-18T00:07:43.416Z,93.60
2018-02-18T00:10:11.389Z,93.50
2018-02-18T00:12:39.585Z,93.50
2018-02-18T00:15:13.537Z,93.60
2018-02-18T00:17:41.439Z,93.80
2018-02-18T00:20:09.610Z,93.70
2018-02-18T00:22:37.564Z,93.80
2018-02-18T00:25:05.449Z,93.90
2018-02-18T00:27:33.330Z,94.00
2018-02-18T00:30:01.387Z,94.20
2018-02-18T00:32:29.358Z,94.40
2018-02-18T00:34:57.326Z,94.50
2018-02-18T00:37:25.181Z,94.60
2018-02-18T00:39:53.266Z,94.60
2018-02-18T00:42:21.516Z,94.70
2018-02-18T00:44:49.481Z,94.60
2018-02-18T00:47:17.706Z,94.40
2018-02-18T00:49:45.848Z,94.30
2018-02-18T00:52:13.825Z,94.30
2018-02-18T00:54:42.003Z,94.20
2018-02-18T00:57:10.038Z,94.10
2018-02-18T00:59:38.043Z,94.10
2018-02-18T01:02:06.011Z,94.50
2018-02-18T01:04:34.064Z,94.40
2018-02-18T01:07:02.200Z,94.40
2018-02-18T01:09:31.002Z,94.80
2018-02-18T01:11:59.130Z,94.70
2018-02-18T01:14:27.090Z,94.80
2018-02-18T01:16:55.158Z,94.80
2018-02-18T01:19:23.240Z,94.60
2018-02-18T01:21:51.142Z,94.90
2018-02-18T01:24:19.887Z,95.60
2018-02-18T01:26:48.784Z,95.80
2018-02-18T01:29:16.597Z,95.70
2018-02-18T01:31:44.505Z,95.70
2018-02-18T01:34:12.339Z,95.60
2018-02-18T01:36:40.109Z,95.50
2018-02-18T01:39:08.004Z,95.40
2018-02-18T01:41:35.797Z,95.20
2018-02-18T01:44:03.640Z,95.20
2018-02-18T01:46:31.540Z,95.30
2018-02-18T01:49:00.130Z,95.20
2018-02-18T01:51:28.687Z,95.50
2018-02-18T01:53:57.381Z,95.20
2018-02-18T01:56:25.185Z,95.20
2018-02-18T01:58:53.084Z,95.40
2018-02-18T02:01:20.960Z,95.20
2018-02-18T02:03:48.848Z,95.30
2018-02-18T02:06:16.634Z,95.30
2018-02-18T02:08:44.491Z,95.20
2018-02-18T02:11:13.076Z,95.50
2018-02-18T02:13:41.733Z,95.60
2018-02-18T02:16:09.652Z,95.60
2018-02-18T02:18:37.524Z,95.60
2018-02-18T02:21:05.297Z,95.70
2018-02-18T02:23:33.249Z,95.80
2018-02-18T02:26:01.032Z,95.80
2018-02-18T02:28:28.882Z,96.10
2018-02-18T02:30:56.829Z,96.30
2018-02-18T02:33:25.561Z,97.20
2018-02-18T02:35:53.400Z,97.10
2018-02-18T02:38:21.325Z,97.50
2018-02-18T02:40:49.125Z,97.90
2018-02-18T02:43:17.742Z,98.20
2018-02-18T02:45:45.633Z,98.10
2018-02-18T02:48:13.582Z,98.20
2018-02-18T02:50:41.540Z,98.10
2018-02-18T02:53:09.425Z,98.20
2018-02-18T02:55:37.264Z,98.00
2018-02-18T02:58:05.173Z,97.80
2018-02-18T03:00:33.149Z,97.70
2018-02-18T03:03:01.047Z,97.50
2018-02-18T03:05:29.616Z,97.60
2018-02-18T03:07:58.254Z,97.90
2018-02-18T03:10:26.355Z,97.90
2018-02-18T03:12:54.318Z,98.20
2018-02-18T03:15:22.390Z,98.60
2018-02-18T03:17:50.537Z,98.90
2018-02-18T03:20:18.313Z,99.20
2018-02-18T03:22:46.225Z,99.50
2018-02-18T03:25:14.830Z,99.90
2018-02-18T03:27:42.713Z,99.90
2018-02-18T03:30:10.660Z,99.90
2018-02-18T03:32:38.553Z,99.90
2018-02-18T03:35:06.429Z,99.90
2018-02-18T03:37:34.346Z,99.90
2018-02-18T03:40:02.948Z,99.70
2018-02-18T03:42:31.551Z,99.70
2018-02-18T03:44:59.468Z,99.70
2018-02-18T03:47:27.247Z,99.50
2018-02-18T03:49:55.881Z,99.70
2018-02-18T03:52:23.885Z,99.30
2018-02-18T03:54:51.754Z,99.10
2018-02-18T03:57:19.608Z,98.90
2018-02-18T03:59:47.587Z,98.90
2018-02-18T04:02:15.436Z,98.80
2018-02-18T04:04:43.217Z,98.70
2018-02-18T04:07:11.071Z,98.70
2018-02-18T04:09:38.894Z,98.50
2018-02-18T04:12:06.789Z,98.50
2018-02-18T04:14:34.668Z,98.50
2018-02-18T04:17:02.463Z,98.40
2018-02-18T04:19:31.088Z,98.20
2018-02-18T04:21:58.999Z,98.20
2018-02-18T04:24:26.854Z,98.10
2018-02-18T04:26:54.735Z,98.10
2018-02-18T04:29:22.653Z,98.00
2018-02-18T04:31:50.595Z,98.00
2018-02-18T04:34:19.248Z,98.20
2018-02-18T04:36:47.114Z,98.20
2018-02-18T04:39:14.972Z,98.20
2018-02-18T04:41:42.769Z,98.50
2018-02-18T04:44:10.729Z,98.70
2018-02-18T04:46:38.625Z,98.90
2018-02-18T04:49:07.187Z,98.70
2018-02-18T04:51:35.102Z,98.70
2018-02-18T04:54:02.916Z,98.90
2018-02-18T04:56:30.686Z,98.50
2018-02-18T04:58:58.570Z,98.40
2018-02-18T05:01:26.415Z,98.20
2018-02-18T05:03:54.284Z,98.30
2018-02-18T05:06:22.145Z,98.30
2018-02-18T05:08:49.997Z,98.30
2018-02-18T05:11:17.785Z,98.20
2018-02-18T05:13:45.681Z,98.20
2018-02-18T05:16:13.498Z,98.20
2018-02-18T05:18:41.464Z,98.20
2018-02-18T05:21:09.400Z,98.20
2018-02-18T05:23:37.401Z,98.20
2018-02-18T05:26:05.224Z,98.20
2018-02-18T05:28:33.459Z,98.20
2018-02-18T05:31:01.500Z,98.20
2018-02-18T05:33:29.577Z,98.50
2018-02-18T05:35:57.554Z,98.20
2018-02-18T05:38:27.469Z,98.30
2018-02-18T05:40:55.442Z,98.30
2018-02-18T05:43:23.572Z,98.40
2018-02-18T05:45:51.583Z,98.50
2018-02-18T05:48:19.448Z,98.50
2018-02-18T05:50:47.485Z,98.40
2018-02-18T05:53:15.545Z,98.40
2018-02-18T05:55:43.413Z,98.30
2018-02-18T05:58:11.526Z,98.40
2018-02-18T06:00:39.604Z,98.40
2018-02-18T06:03:07.647Z,98.40
2018-02-18T06:05:35.651Z,98.20
2018-02-18T06:08:03.613Z,98.30
2018-02-18T06:10:31.856Z,98.40
2018-02-18T06:12:59.823Z,98.40
2018-02-18T06:15:27.641Z,98.30
2018-02-18T06:17:55.618Z,98.20
2018-02-18T06:20:23.565Z,98.30
2018-02-18T06:22:51.431Z,98.30
2018-02-18T06:25:19.296Z,98.30
2018-02-18T06:27:47.296Z,98.30
2018-02-18T06:30:15.960Z,98.30
2018-02-18T06:32:43.841Z,98.30
2018-02-18T06:35:11.777Z,98.30
2018-02-18T06:37:39.545Z,98.30
2018-02-18T06:40:07.334Z,98.40
2018-02-18T06:42:35.216Z,98.40
2018-02-18T06:45:03.803Z,98.50
2018-02-18T06:47:32.451Z,98.60
2018-02-18T06:50:00.378Z,98.60
2018-02-18T06:52:28.206Z,98.50
2018-02-18T06:54:56.077Z,98.50
2018-02-18T06:57:24.840Z,98.50
2018-02-18T06:59:53.525Z,98.70
2018-02-18T07:02:21.388Z,98.60
2018-02-18T07:04:49.236Z,98.70
2018-02-18T07:07:17.068Z,98.90
2018-02-18T07:09:45.725Z,98.40
2018-02-18T07:12:13.592Z,98.40
2018-02-18T07:14:41.436Z,98.30
2018-02-18T07:17:09.276Z,98.30
2018-02-18T07:19:37.227Z,98.20
2018-02-18T07:22:05.105Z,98.20
2018-02-18T07:24:32.973Z,98.20
2018-02-18T07:27:00.910Z,98.10
2018-02-18T07:29:29.507Z,97.90
2018-02-18T07:31:58.084Z,97.80
2018-02-18T07:34:26.717Z,97.70
2018-02-18T07:36:54.501Z,97.70
2018-02-18T07:39:22.357Z,97.90
2018-02-18T07:41:50.288Z,97.40
2018-02-18T07:44:18.081Z,97.30
2018-02-18T07:46:45.998Z,97.20
2018-02-18T07:49:14.645Z,97.40
2018-02-18T07:51:42.537Z,97.40
2018-02-18T07:54:10.592Z,96.80
2018-02-18T07:56:38.521Z,96.60
2018-02-18T07:59:06.385Z,96.40
2018-02-18T08:01:34.221Z,96.20
2018-02-18T08:04:02.925Z,96.10
2018-02-18T08:06:30.773Z,96.00
2018-02-18T08:08:59.469Z,95.90
2018-02-18T08:11:28.252Z,95.70
2018-02-18T08:13:56.080Z,95.70
2018-02-18T08:16:24.062Z,95.70
2018-02-18T08:18:52.453Z,95.50
2018-02-18T08:21:20.611Z,95.50
2018-02-18T08:23:48.535Z,95.50
2018-02-18T08:26:16.547Z,95.30
2018-02-18T08:28:44.513Z,95.50
2018-02-18T08:31:12.813Z,95.50
2018-02-18T08:33:40.752Z,95.20
2018-02-18T08:36:08.687Z,95.10
2018-02-18T08:38:37.010Z,94.90
2018-02-18T08:41:04.993Z,95.00
2018-02-18T08:43:32.943Z,95.10
2018-02-18T08:46:00.893Z,94.60
2018-02-18T08:48:28.834Z,94.70
2018-02-18T08:50:56.745Z,94.70
2018-02-18T08:53:24.777Z,94.70
2018-02-18T08:55:52.788Z,94.50
2018-02-18T08:58:20.942Z,94.40
2018-02-18T09:00:48.933Z,94.40
2018-02-18T09:03:17.003Z,94.30
2018-02-18T09:05:44.871Z,94.20
2018-02-18T09:08:12.913Z,94.60
2018-02-18T09:10:41.089Z,94.20
2018-02-18T09:13:09.085Z,94.20
2018-02-18T09:15:37.010Z,94.20
2018-02-18T09:18:04.921Z,94.00
2018-02-18T09:20:32.897Z,94.00
2018-02-18T09:23:01.030Z,93.90
2018-02-18T09:25:29.032Z,93.90
2018-02-18T09:27:57.068Z,93.80
2018-02-18T09:30:25.280Z,93.70
2018-02-18T09:32:53.248Z,93.60
2018-02-18T09:35:21.526Z,93.60
2018-02-18T09:37:49.525Z,93.50
2018-02-18T09:40:18.283Z,93.40
2018-02-18T09:42:46.492Z,93.40
2018-02-18T09:45:14.603Z,93.20
2018-02-18T09:47:42.562Z,93.20
2018-02-18T09:50:10.635Z,93.30
2018-02-18T09:52:38.682Z,93.40
2018-02-18T09:55:06.649Z,93.50
2018-02-18T09:57:35.217Z,93.40
2018-02-18T10:00:03.055Z,93.40
2018-02-18T10:02:31.041Z,94.60
2018-02-18T10:04:58.969Z,94.00
2018-02-18T10:07:26.849Z,93.60
2018-02-18T10:09:54.737Z,93.40
2018-02-18T10:12:22.609Z,93.70
2018-02-18T10:14:51.388Z,95.20
2018-02-18T10:17:19.721Z,95.20
2018-02-18T10:19:51.629Z,94.80
2018-02-18T10:22:19.498Z,94.10
2018-02-18T10:24:47.589Z,93.50
2018-02-18T10:27:16.576Z,93.00
2018-02-18T10:29:44.437Z,93.00
2018-02-18T10:32:12.357Z,92.60
2018-02-18T10:34:40.312Z,91.70
2018-02-18T10:37:08.105Z,89.10
2018-02-18T10:39:35.937Z,87.90
2018-02-18T10:42:03.860Z,87.40
2018-02-18T10:44:31.830Z,86.10
2018-02-18T10:47:00.217Z,84.50
2018-02-18T10:49:28.241Z,85.00
2018-02-18T10:51:56.140Z,83.80
2018-02-18T10:54:24.090Z,83.80
2018-02-18T10:56:52.038Z,81.60
2018-02-18T10:59:19.932Z,80.80
2018-02-18T11:01:47.921Z,80.30
2018-02-18T11:04:15.897Z,79.10
2018-02-18T11:06:43.849Z,78.00
2018-02-18T11:09:11.818Z,76.70
2018-02-18T11:11:39.608Z,76.50
2018-02-18T11:14:07.582Z,75.50
2018-02-18T11:16:35.620Z,74.30
2018-02-18T11:19:03.605Z,74.00
2018-02-18T11:21:31.472Z,74.40
2018-02-18T11:23:59.441Z,74.20
2018-02-18T11:26:27.513Z,75.40
2018-02-18T11:28:55.341Z,74.10
2018-02-18T11:31:23.351Z,73.30
2018-02-18T11:33:51.501Z,73.10
2018-02-18T11:36:19.494Z,73.30
2018-02-18T11:38:47.484Z,73.60
2018-02-18T11:41:16.455Z,76.60
2018-02-18T11:43:46.127Z,76.20
2018-02-18T11:46:14.108Z,76.20
2018-02-18T11:48:42.112Z,77.00
2018-02-18T11:51:09.972Z,76.10
2018-02-18T11:53:38.376Z,77.40
2018-02-18T11:56:07.035Z,76.30
2018-02-18T11:58:35.106Z,76.10
2018-02-18T12:01:03.280Z,76.80
2018-02-18T12:03:31.352Z,78.20
2018-02-18T12:05:59.322Z,81.10
2018-02-18T12:08:27.290Z,80.40
2018-02-18T12:10:55.259Z,75.30
2018-02-18T12:13:23.399Z,76.40
2018-02-18T12:15:51.442Z,79.20
2018-02-18T12:18:20.500Z,79.30
2018-02-18T12:20:48.468Z,79.30
2018-02-18T12:23:16.762Z,79.70
2018-02-18T12:25:44.714Z,82.50
2018-02-18T12:28:12.740Z,85.20
2018-02-18T12:30:40.863Z,85.60
2018-02-18T12:33:08.803Z,86.20
2018-02-18T12:35:36.795Z,86.60
2018-02-18T12:38:04.763Z,87.30
2018-02-18T12:40:32.677Z,87.30
2018-02-18T12:43:01.706Z,87.90
2018-02-18T12:45:29.799Z,87.90
2018-02-18T12:47:57.869Z,87.70
2018-02-18T12:50:25.943Z,87.60
2018-02-18T12:52:53.912Z,87.90
2018-02-18T12:55:21.936Z,89.30
2018-02-18T12:57:49.803Z,88.90
2018-02-18T13:00:17.755Z,88.20
2018-02-18T13:02:46.231Z,88.30
2018-02-18T13:05:15.087Z,88.30
2018-02-18T13:07:43.057Z,88.20
2018-02-18T13:10:11.099Z,88.80
2018-02-18T13:12:39.916Z,88.40
2018-02-18T13:15:07.948Z,88.70
2018-02-18T13:17:35.855Z,88.20
2018-02-18T13:20:03.830Z,87.50
2018-02-18T13:22:31.826Z,87.60
2018-02-18T13:25:00.890Z,87.80
2018-02-18T13:27:28.859Z,87.80
2018-02-18T13:29:57.465Z,87.60
2018-02-18T13:32:25.552Z,87.70
2018-02-18T13:34:53.665Z,88.40
2018-02-18T13:37:21.948Z,89.70
2018-02-18T13:39:50.017Z,90.00
2018-02-18T13:42:18.118Z,90.00
2018-02-18T13:44:46.076Z,89.20
2018-02-18T13:47:14.149Z,89.50
2018-02-18T13:49:42.139Z,89.60
2018-02-18T13:52:10.396Z,89.20
2018-02-18T13:54:38.466Z,88.70
2018-02-18T13:57:06.348Z,88.60
2018-02-18T13:59:34.507Z,88.40
2018-02-18T14:02:02.538Z,87.60
2018-02-18T14:04:30.454Z,87.50
2018-02-18T14:06:58.434Z,85.40
2018-02-18T14:09:26.745Z,84.50
2018-02-18T14:11:54.683Z,84.70
2018-02-18T14:14:23.723Z,86.60
2018-02-18T14:16:51.628Z,86.60
2018-02-18T14:19:19.529Z,86.90
2018-02-18T14:21:48.373Z,87.50
2018-02-18T14:24:16.244Z,87.50
2018-02-18T14:26:44.318Z,86.60
2018-02-18T14:29:12.495Z,87.60
2018-02-18T14:31:40.463Z,87.90
2018-02-18T14:34:08.428Z,89.80
2018-02-18T14:36:36.397Z,90.00
2018-02-18T14:39:04.449Z,90.40
2018-02-18T14:41:44.626Z,89.60
2018-02-18T14:44:24.494Z,89.30
2018-02-18T14:47:04.321Z,90.80
2018-02-18T14:49:44.341Z,89.90
2018-02-18T14:52:24.329Z,89.80
2018-02-18T14:57:57.741Z,90.20
2018-02-18T15:00:25.811Z,90.20
2018-02-18T15:02:53.986Z,90.20
2018-02-18T15:05:22.161Z,90.80
2018-02-18T15:07:50.045Z,91.00
2018-02-18T15:10:18.303Z,91.10
2018-02-18T15:12:46.271Z,91.20
2018-02-18T15:15:14.448Z,90.90
2018-02-18T15:17:42.318Z,91.10
2018-02-18T15:20:10.220Z,91.20
2018-02-18T15:22:39.071Z,91.60
2018-02-18T15:25:07.040Z,91.60
2018-02-18T15:27:35.116Z,91.60
2018-02-18T15:30:03.080Z,92.50
2018-02-18T15:32:30.947Z,92.00
2018-02-18T15:34:59.226Z,92.40
2018-02-18T15:37:27.500Z,92.00
2018-02-18T15:39:55.670Z,92.00
2018-02-18T15:42:23.746Z,92.30
2018-02-18T15:44:51.818Z,91.80
2018-02-18T15:47:19.757Z,91.50
2018-02-18T15:49:47.858Z,92.10
2018-02-18T15:52:15.680Z,92.40
2018-02-18T15:54:43.900Z,92.40
2018-02-18T15:57:11.994Z,92.00
2018-02-18T15:59:40.861Z,92.50
2018-02-18T16:02:09.206Z,92.10
2018-02-18T16:04:37.326Z,92.50
2018-02-18T16:07:05.307Z,92.60
2018-02-18T16:09:34.087Z,93.40
2018-02-18T16:12:02.858Z,93.20
2018-02-18T16:14:30.726Z,93.40
2018-02-18T16:16:58.656Z,93.50
2018-02-18T16:19:26.973Z,93.80
2018-02-18T16:21:55.013Z,94.00
2018-02-18T16:24:22.855Z,94.30
2018-02-18T16:26:51.063Z,94.30
2018-02-18T16:29:18.950Z,94.10
2018-02-18T16:31:46.946Z,94.20
2018-02-18T16:34:15.709Z,94.50
2018-02-18T16:36:43.634Z,94.30
2018-02-18T16:39:11.545Z,94.60
2018-02-18T16:41:39.678Z,94.70
2018-02-18T16:44:07.481Z,95.10
2018-02-18T16:46:35.422Z,94.80
2018-02-18T16:49:03.419Z,94.70
2018-02-18T16:51:31.385Z,94.30
2018-02-18T16:53:59.360Z,94.30
2018-02-18T16:56:27.335Z,94.30
2018-02-18T16:58:55.502Z,94.20
2018-02-18T17:01:23.801Z,94.30
2018-02-18T17:03:52.833Z,94.30
2018-02-18T17:06:20.676Z,94.60
2018-02-18T17:08:49.402Z,94.20
2018-02-18T17:11:17.504Z,94.20
2018-02-18T17:13:45.565Z,94.20
2018-02-18T17:16:13.547Z,94.10
2018-02-18T17:18:41.619Z,94.10
2018-02-18T17:21:09.579Z,94.20
2018-02-18T17:23:37.623Z,94.30
2018-02-18T17:26:05.939Z,94.50
2018-02-18T17:28:34.139Z,94.40
2018-02-18T17:31:02.073Z,94.30
2018-02-18T17:33:30.039Z,94.30
2018-02-18T17:35:57.913Z,94.40
2018-02-18T17:38:26.286Z,93.40
2018-02-18T17:40:54.257Z,93.20
2018-02-18T17:43:22.301Z,93.10
2018-02-18T17:45:50.205Z,92.80
2018-02-18T17:48:18.164Z,92.80
2018-02-18T17:50:46.502Z,92.60
2018-02-18T17:53:14.645Z,92.80
2018-02-18T17:55:43.602Z,93.00
2018-02-18T17:58:11.649Z,93.00
2018-02-18T18:00:39.577Z,92.90
2018-02-18T18:03:08.629Z,94.00
2018-02-18T18:05:36.469Z,93.90
2018-02-18T18:08:04.297Z,94.60
2018-02-18T18:10:32.257Z,94.20
2018-02-18T18:13:01.850Z,93.60
2018-02-18T18:15:30.399Z,93.60
2018-02-18T18:17:58.373Z,93.30
2018-02-18T18:20:26.566Z,93.00
2018-02-18T18:22:54.514Z,93.20
2018-02-18T18:25:22.574Z,92.60
2018-02-18T18:27:50.485Z,92.50
2018-02-18T18:30:18.347Z,91.60
2018-02-18T18:32:46.379Z,91.30
2018-02-18T18:35:14.446Z,90.70
2018-02-18T18:37:42.362Z,90.40
2018-02-18T18:40:10.539Z,90.30
2018-02-18T18:42:38.689Z,90.40
2018-02-18T18:45:06.678Z,90.70
2018-02-18T18:47:34.658Z,90.80
2018-02-18T18:50:02.571Z,90.50
2018-02-18T18:52:30.641Z,90.40
2018-02-18T18:54:59.586Z,90.60
2018-02-18T18:57:27.725Z,90.60
2018-02-18T18:59:55.914Z,90.50
2018-02-18T19:02:23.869Z,90.50
2018-02-18T19:04:51.720Z,90.40
2018-02-18T19:07:19.594Z,90.70
2018-02-18T19:09:47.486Z,90.60
2018-02-18T19:12:15.570Z,90.10
2018-02-18T19:14:44.460Z,89.70
2018-02-18T19:17:12.585Z,89.20
2018-02-18T19:19:40.934Z,90.30
2018-02-18T19:22:08.882Z,90.30
2018-02-18T19:24:36.814Z,90.60
2018-02-18T19:27:04.873Z,90.60
2018-02-18T19:29:32.889Z,90.50
2018-02-18T19:32:00.951Z,90.00
2018-02-18T19:34:29.136Z,90.00
2018-02-18T19:36:57.334Z,89.80
2018-02-18T19:39:25.266Z,90.00
2018-02-18T19:41:53.253Z,90.60
2018-02-18T19:44:21.173Z,90.50
2018-02-18T19:46:49.141Z,90.10
2018-02-18T19:49:17.027Z,90.00
2018-02-18T19:51:45.124Z,90.20
2018-02-18T19:54:13.299Z,89.90
2018-02-18T19:56:41.371Z,90.00
2018-02-18T19:59:09.543Z,89.90
2018-02-18T20:01:37.420Z,89.50
2018-02-18T20:04:05.379Z,89.90
2018-02-18T20:06:33.513Z,89.10
2018-02-18T20:09:01.625Z,89.20
2018-02-18T20:11:29.596Z,89.50
2018-02-18T20:13:57.649Z,89.40
2018-02-18T20:16:25.738Z,89.40
2018-02-18T20:18:53.912Z,89.10
2018-02-18T20:21:22.305Z,89.00
2018-02-18T20:23:50.253Z,88.90
2018-02-18T20:26:18.339Z,88.80
2018-02-18T20:28:46.301Z,89.20
2018-02-18T20:31:14.439Z,89.60
2018-02-18T20:33:42.342Z,89.80
2018-02-18T20:36:10.207Z,88.30
2018-02-18T20:38:38.282Z,87.40
2018-02-18T20:41:06.249Z,86.20
2018-02-18T20:43:34.579Z,85.60
2018-02-18T20:46:02.595Z,84.20
2018-02-18T20:48:30.373Z,84.30
2018-02-18T20:50:58.639Z,84.30
2018-02-18T20:53:26.610Z,83.20
2018-02-18T20:55:54.644Z,83.50
2018-02-18T20:58:22.793Z,83.70
2018-02-18T21:00:51.595Z,83.00
2018-02-18T21:03:19.413Z,83.00
2018-02-18T21:05:47.238Z,82.90
2018-02-18T21:08:15.114Z,84.00
2018-02-18T21:10:42.981Z,83.10
2018-02-18T21:13:10.874Z,82.70
2018-02-18T21:15:38.821Z,82.80
2018-02-18T21:18:06.641Z,82.10
2018-02-18T21:20:35.289Z,81.70
2018-02-18T21:23:03.204Z,81.60
2018-02-18T21:25:31.758Z,81.30
2018-02-18T21:27:59.661Z,81.30
2018-02-18T21:30:27.541Z,80.60
2018-02-18T21:32:55.447Z,81.20
2018-02-18T21:35:23.313Z,81.10
2018-02-18T21:37:51.288Z,81.80
2018-02-18T21:40:19.147Z,81.70
2018-02-18T21:42:47.017Z,82.10
2018-02-18T21:45:15.273Z,82.10
2018-02-18T21:47:43.358Z,81.30
2018-02-18T21:50:11.333Z,81.00
2018-02-18T21:52:39.313Z,80.50
2018-02-18T21:55:08.295Z,80.80
2018-02-18T21:57:36.163Z,80.90
2018-02-18T22:00:04.341Z,81.40
2018-02-18T22:02:32.484Z,80.20
2018-02-18T22:05:00.458Z,80.20
2018-02-18T22:07:28.498Z,80.30
2018-02-18T22:09:56.736Z,79.80
2018-02-18T22:12:25.513Z,79.50
2018-02-18T22:14:53.759Z,79.30
2018-02-18T22:17:21.924Z,78.80
2018-02-18T22:19:49.909Z,78.90
2018-02-18T22:22:18.005Z,78.80
2018-02-18T22:24:46.075Z,78.40
2018-02-18T22:27:14.150Z,77.40
2018-02-18T22:29:42.068Z,77.30
2018-02-18T22:32:09.881Z,78.20
2018-02-18T22:34:38.019Z,75.90
2018-02-18T22:37:05.922Z,76.00
2018-02-18T22:39:33.789Z,75.80
2018-02-18T22:42:02.473Z,77.20
2018-02-18T22:44:30.481Z,77.20
2018-02-18T22:46:59.333Z,79.70
2018-02-18T22:49:27.626Z,79.70
2018-02-18T22:51:55.849Z,77.20
2018-02-18T22:54:23.957Z,77.00
2018-02-18T22:56:52.132Z,75.90
2018-02-18T22:59:20.262Z,75.10
2018-02-18T23:01:48.218Z,76.20
2018-02-18T23:04:16.858Z,76.20
2018-02-18T23:06:45.101Z,76.20
2018-02-18T23:09:13.001Z,76.00
2018-02-18T23:11:40.971Z,75.70
2018-02-18T23:14:08.942Z,76.00
2018-02-18T23:16:36.813Z,76.00
2018-02-18T23:19:04.844Z,75.20
2018-02-18T23:21:32.746Z,75.80
2018-02-18T23:24:00.920Z,76.00
2018-02-18T23:26:28.913Z,76.20
2018-02-18T23:28:56.809Z,76.80
2018-02-18T23:31:24.690Z,77.10
2018-02-18T23:33:52.796Z,76.40
2018-02-18T23:36:20.739Z,77.00
2018-02-18T23:38:48.577Z,77.30
2018-02-18T23:41:16.417Z,77.50
2018-02-18T23:43:44.317Z,76.20
2018-02-18T23:46:12.228Z,76.20
2018-02-18T23:48:40.061Z,76.60
2018-02-18T23:51:07.898Z,75.90
2018-02-18T23:53:36.514Z,76.70
2018-02-18T23:56:04.311Z,76.70
2018-02-18T23:58:32.196Z,76.90
